createdAt,value
2022-11-11T00:01:38.231Z,7.69
2022-11-11T00:04:24.283Z,7.76
2022-11-11T00:07:10.205Z,7.84
2022-11-11T00:09:56.291Z,7.94
2022-11-11T00:12:42.053Z,8.04
2022-11-11T00:15:29.535Z,8.08
2022-11-11T00:18:34.069Z,8.05
2022-11-11T00:21:38.665Z,7.98
2022-11-11T00:24:48.621Z,7.93
2022-11-11T00:27:36.028Z,7.84
2022-11-11T00:30:22.122Z,7.80
2022-11-11T00:33:08.460Z,7.71
2022-11-11T00:35:54.969Z,7.67
2022-11-11T00:38:46.938Z,7.70
2022-11-11T00:41:32.703Z,7.69
2022-11-11T00:44:18.727Z,7.69
2022-11-11T00:47:23.471Z,7.69
2022-11-11T00:50:48.337Z,7.69
2022-11-11T00:53:35.528Z,7.64
2022-11-11T00:56:23.071Z,7.59
2022-11-11T00:59:09.689Z,7.55
2022-11-11T01:01:55.958Z,7.51
2022-11-11T01:04:42.090Z,7.48
2022-11-11T01:07:28.448Z,7.45
2022-11-11T01:10:34.682Z,7.48
2022-11-11T01:13:22.386Z,7.48
2022-11-11T01:16:12.663Z,7.47
2022-11-11T01:18:58.797Z,7.47
2022-11-11T01:21:44.933Z,7.47
2022-11-11T01:24:31.387Z,7.48
2022-11-11T01:27:17.548Z,7.44
2022-11-11T01:30:03.939Z,7.44
2022-11-11T01:32:49.683Z,7.47
2022-11-11T01:35:39.366Z,7.48
2022-11-11T01:38:26.111Z,7.48
2022-11-11T01:41:33.961Z,7.47
2022-11-11T01:44:47.800Z,7.38
2022-11-11T01:48:22.118Z,7.29
2022-11-11T01:51:05.527Z,7.19
2022-11-11T01:53:58.155Z,7.14
2022-11-11T01:56:50.148Z,7.11
2022-11-11T01:59:40.228Z,7.12
2022-11-11T02:02:44.731Z,7.11
2022-11-11T02:05:43.891Z,7.10
2022-11-11T02:08:36.819Z,7.11
2022-11-11T02:11:44.834Z,7.08
2022-11-11T02:14:36.951Z,7.10
2022-11-11T02:17:24.533Z,7.07
2022-11-11T02:20:15.651Z,7.07
2022-11-11T02:23:10.123Z,7.10
2022-11-11T02:25:57.519Z,7.21
2022-11-11T02:28:45.294Z,7.41
2022-11-11T02:31:32.736Z,7.51
2022-11-11T02:34:18.683Z,7.58
2022-11-11T02:37:08.304Z,7.68
2022-11-11T02:40:04.220Z,7.67
2022-11-11T02:42:51.072Z,7.64
2022-11-11T02:45:37.432Z,7.66
2022-11-11T02:48:24.994Z,7.63
2022-11-11T02:51:11.184Z,7.57
2022-11-11T02:53:59.228Z,7.56
2022-11-11T02:57:03.948Z,7.51
2022-11-11T02:59:49.814Z,7.47
2022-11-11T03:02:36.034Z,7.43
2022-11-11T03:05:22.587Z,7.38
2022-11-11T03:08:09.257Z,7.36
2022-11-11T03:10:55.190Z,7.37
2022-11-11T03:13:41.130Z,7.37
2022-11-11T03:16:47.201Z,7.40
2022-11-11T03:19:33.818Z,7.43
2022-11-11T03:22:53.729Z,7.42
2022-11-11T03:25:38.163Z,7.57
2022-11-11T03:28:26.000Z,7.70
2022-11-11T03:31:12.202Z,7.76
2022-11-11T03:34:18.495Z,7.78
2022-11-11T03:37:25.314Z,7.74
2022-11-11T03:40:12.185Z,7.67
2022-11-11T03:43:02.909Z,7.67
2022-11-11T03:45:54.858Z,7.61
2022-11-11T03:48:41.126Z,7.52
2022-11-11T03:51:27.136Z,7.52
2022-11-11T03:54:13.394Z,7.59
2022-11-11T03:57:18.441Z,7.62
2022-11-11T04:00:12.240Z,7.63
2022-11-11T04:03:30.829Z,7.69
2022-11-11T04:06:35.484Z,7.70
2022-11-11T04:09:40.144Z,7.69
2022-11-11T04:12:27.030Z,7.67
2022-11-11T04:15:31.756Z,7.71
2022-11-11T04:18:17.812Z,7.74
2022-11-11T04:21:38.970Z,7.73
2022-11-11T04:24:44.045Z,7.70
2022-11-11T04:27:30.323Z,7.73
2022-11-11T04:30:16.224Z,7.73
2022-11-11T04:33:02.262Z,7.68
2022-11-11T04:35:51.705Z,7.68
2022-11-11T04:38:56.554Z,7.70
2022-11-11T04:42:06.482Z,7.64
2022-11-11T04:45:07.064Z,7.58
2022-11-11T04:48:01.853Z,7.63
2022-11-11T04:50:47.704Z,7.67
2022-11-11T04:53:33.655Z,7.73
2022-11-11T04:56:38.170Z,7.80
2022-11-11T04:59:23.945Z,7.89
2022-11-11T05:02:28.666Z,7.86
2022-11-11T05:05:14.975Z,7.85
2022-11-11T05:08:19.866Z,7.81
2022-11-11T05:11:06.335Z,7.76
2022-11-11T05:14:11.726Z,7.77
2022-11-11T05:17:17.489Z,7.74
2022-11-11T05:20:22.668Z,7.65
2022-11-11T05:23:08.956Z,7.54
2022-11-11T05:25:54.892Z,7.48
2022-11-11T05:28:41.185Z,7.48
2022-11-11T05:31:27.950Z,7.48
2022-11-11T05:34:13.857Z,7.45
2022-11-11T05:36:59.934Z,7.45
2022-11-11T05:39:45.835Z,7.40
2022-11-11T05:42:32.080Z,7.38
2022-11-11T05:45:18.419Z,7.32
2022-11-11T05:48:04.675Z,7.22
2022-11-11T05:50:50.514Z,7.10
2022-11-11T05:53:36.564Z,6.97
2022-11-11T05:56:22.441Z,6.88
2022-11-11T05:59:08.844Z,6.82
2022-11-11T06:01:54.774Z,6.84
2022-11-11T06:04:40.523Z,6.99
2022-11-11T06:07:26.657Z,7.06
2022-11-11T06:10:30.687Z,7.12
2022-11-11T06:13:16.662Z,7.14
2022-11-11T06:16:04.240Z,7.12
2022-11-11T06:18:51.481Z,7.08
2022-11-11T06:21:57.106Z,7.17
2022-11-11T06:24:43.159Z,7.46
2022-11-11T06:27:29.152Z,7.56
2022-11-11T06:33:22.547Z,7.79
2022-11-11T06:36:11.086Z,7.91
2022-11-11T06:38:57.415Z,7.95
2022-11-11T06:41:43.294Z,8.07
2022-11-11T06:44:29.327Z,8.16
2022-11-11T06:47:16.350Z,8.20
2022-11-11T06:50:02.509Z,8.26
2022-11-11T06:52:48.803Z,8.29
2022-11-11T06:55:35.494Z,8.37
2022-11-11T06:58:21.961Z,8.44
2022-11-11T07:01:09.851Z,8.40
2022-11-11T07:03:55.940Z,8.37
2022-11-11T07:06:42.188Z,8.39
2022-11-11T07:09:28.944Z,8.43
2022-11-11T07:12:15.474Z,8.52
2022-11-11T07:15:01.509Z,8.59
2022-11-11T07:17:47.672Z,8.70
2022-11-11T07:20:33.729Z,8.77
2022-11-11T07:23:19.733Z,8.92
2022-11-11T07:26:05.830Z,9.05
2022-11-11T07:28:52.094Z,9.21
2022-11-11T07:31:38.264Z,9.42
2022-11-11T07:34:24.283Z,9.61
2022-11-11T07:37:10.424Z,9.76
2022-11-11T07:39:56.445Z,10.08
2022-11-11T07:42:43.754Z,10.38
2022-11-11T07:45:29.884Z,10.62
2022-11-11T07:48:15.774Z,10.94
2022-11-11T07:51:01.783Z,11.53
2022-11-11T07:53:47.944Z,11.62
2022-11-11T07:56:33.945Z,11.52
2022-11-11T07:59:19.757Z,11.65
2022-11-11T08:02:05.785Z,11.78
2022-11-11T08:04:55.346Z,11.96
2022-11-11T08:07:42.837Z,12.03
2022-11-11T08:10:28.762Z,12.06
2022-11-11T08:13:33.264Z,11.98
2022-11-11T08:16:19.014Z,11.76
2022-11-11T08:19:04.966Z,11.79
2022-11-11T08:21:52.543Z,11.70
2022-11-11T08:27:46.344Z,11.66
2022-11-11T08:30:33.404Z,11.99
2022-11-11T08:33:32.721Z,12.25
2022-11-11T08:36:20.976Z,12.40
2022-11-11T08:39:08.146Z,12.42
2022-11-11T08:41:54.137Z,12.38
2022-11-11T08:44:40.101Z,12.39
2022-11-11T08:47:26.084Z,12.43
2022-11-11T08:50:12.441Z,12.45
2022-11-11T08:52:58.407Z,12.38
2022-11-11T08:55:44.781Z,12.38
2022-11-11T08:58:32.035Z,12.39
2022-11-11T09:01:18.050Z,12.44
2022-11-11T09:04:22.949Z,12.44
2022-11-11T09:07:11.582Z,12.44
2022-11-11T09:09:57.974Z,12.49
2022-11-11T09:12:43.901Z,12.52
2022-11-11T09:15:30.427Z,12.56
2022-11-11T09:18:16.972Z,12.52
2022-11-11T09:21:03.841Z,12.57
2022-11-11T09:23:50.115Z,12.73
2022-11-11T09:26:36.266Z,12.89
2022-11-11T09:29:22.307Z,13.06
2022-11-11T09:32:08.546Z,13.19
2022-11-11T09:34:57.380Z,13.35
2022-11-11T09:37:43.484Z,13.55
2022-11-11T09:40:58.673Z,13.78
2022-11-11T09:43:48.220Z,13.86
2022-11-11T09:46:39.714Z,13.95
2022-11-11T09:49:34.714Z,14.01
2022-11-11T09:52:44.187Z,14.03
2022-11-11T09:56:01.795Z,14.02
2022-11-11T09:58:53.595Z,14.01
2022-11-11T10:01:51.479Z,14.01
2022-11-11T10:04:56.541Z,13.99
2022-11-11T10:07:54.058Z,13.94
2022-11-11T10:10:49.873Z,13.86
2022-11-11T10:13:38.072Z,13.63
2022-11-11T10:16:48.794Z,13.51
2022-11-11T10:19:53.355Z,13.43
2022-11-11T10:22:41.738Z,13.37
2022-11-11T10:25:28.103Z,13.49
2022-11-11T10:28:19.268Z,13.57
2022-11-11T10:31:15.753Z,13.66
2022-11-11T10:34:12.776Z,13.77
2022-11-11T10:37:00.257Z,13.89
2022-11-11T10:40:17.350Z,13.99
2022-11-11T10:43:03.645Z,14.14
2022-11-11T10:45:54.613Z,14.30
2022-11-11T10:49:11.216Z,14.36
2022-11-11T10:52:10.598Z,14.45
2022-11-11T10:55:19.267Z,14.45
2022-11-11T10:58:28.074Z,14.52
2022-11-11T11:01:17.927Z,14.55
2022-11-11T11:04:09.643Z,14.60
2022-11-11T11:06:59.395Z,14.53
2022-11-11T11:09:52.581Z,14.59
2022-11-11T11:12:58.169Z,14.64
2022-11-11T11:15:49.436Z,14.63
2022-11-11T11:18:40.479Z,14.59
2022-11-11T11:22:08.362Z,14.61
2022-11-11T11:25:10.404Z,14.63
2022-11-11T11:28:12.339Z,14.62
2022-11-11T11:31:00.905Z,14.62
2022-11-11T11:33:51.160Z,14.56
2022-11-11T11:36:37.555Z,14.52
2022-11-11T11:39:35.184Z,14.51
2022-11-11T11:42:47.834Z,14.50
2022-11-11T11:45:33.910Z,14.56
2022-11-11T11:48:31.508Z,14.64
2022-11-11T11:51:17.933Z,14.71
2022-11-11T11:54:51.456Z,14.74
2022-11-11T11:57:52.792Z,14.61
2022-11-11T12:00:51.352Z,14.48
2022-11-11T12:03:58.626Z,14.45
2022-11-11T12:11:11.371Z,14.30
2022-11-11T12:14:10.088Z,14.44
2022-11-11T12:17:11.179Z,14.45
2022-11-11T12:20:15.057Z,14.45
2022-11-11T12:23:38.646Z,14.48
2022-11-11T12:26:48.338Z,14.57
2022-11-11T12:29:43.463Z,14.68
2022-11-11T12:33:06.949Z,14.53
2022-11-11T12:36:08.194Z,14.35
2022-11-11T12:39:03.077Z,14.21
2022-11-11T12:42:07.596Z,14.11
2022-11-11T12:45:22.414Z,14.32
2022-11-11T12:48:27.404Z,14.40
2022-11-11T12:51:40.376Z,14.43
2022-11-11T12:54:58.966Z,14.16
2022-11-11T12:58:12.318Z,14.04
2022-11-11T13:01:20.620Z,13.96
2022-11-11T13:04:40.638Z,14.05
2022-11-11T13:07:34.075Z,14.02
2022-11-11T13:10:23.437Z,13.79
2022-11-11T13:13:28.069Z,13.72
2022-11-11T13:16:16.296Z,13.52
2022-11-11T13:19:13.591Z,13.49
2022-11-11T13:22:08.302Z,13.36
2022-11-11T13:24:58.837Z,13.28
2022-11-11T13:27:55.292Z,13.51
2022-11-11T13:31:01.875Z,13.34
2022-11-11T13:33:51.527Z,13.14
2022-11-11T13:36:51.407Z,13.14
2022-11-11T13:39:46.065Z,13.15
2022-11-11T13:42:40.348Z,12.99
2022-11-11T13:45:36.145Z,12.92
2022-11-11T13:48:39.767Z,13.11
2022-11-11T13:51:39.880Z,13.17
2022-11-11T13:54:36.637Z,13.21
2022-11-11T13:57:26.984Z,13.27
2022-11-11T14:00:36.757Z,13.01
2022-11-11T14:03:26.256Z,12.36
2022-11-11T14:06:15.509Z,11.97
2022-11-11T14:09:02.393Z,11.91
2022-11-11T14:11:48.491Z,11.93
2022-11-11T14:14:34.631Z,11.98
2022-11-11T14:17:21.236Z,12.01
2022-11-11T14:20:38.562Z,12.00
2022-11-11T14:23:35.981Z,12.02
2022-11-11T14:26:27.151Z,12.03
2022-11-11T14:29:20.935Z,12.01
2022-11-11T14:32:44.625Z,11.97
2022-11-11T14:35:40.716Z,11.88
2022-11-11T14:38:40.733Z,11.83
2022-11-11T14:41:45.635Z,11.79
2022-11-11T14:44:34.654Z,11.74
2022-11-11T14:47:42.286Z,11.68
2022-11-11T14:50:28.333Z,11.63
2022-11-11T14:53:31.322Z,11.58
2022-11-11T14:56:18.669Z,11.51
2022-11-11T14:59:11.320Z,11.47
2022-11-11T15:01:59.072Z,11.20
2022-11-11T15:04:47.103Z,10.99
2022-11-11T15:07:45.007Z,10.87
2022-11-11T15:10:43.636Z,10.73
2022-11-11T15:14:03.478Z,10.61
2022-11-11T15:17:08.774Z,10.51
2022-11-11T15:19:54.407Z,10.39
2022-11-11T15:23:20.338Z,10.36
2022-11-11T15:26:30.106Z,10.36
2022-11-11T15:29:33.468Z,10.30
2022-11-11T15:32:30.649Z,10.24
2022-11-11T15:35:30.623Z,10.22
2022-11-11T15:38:19.775Z,10.21
2022-11-11T15:41:06.267Z,10.21
2022-11-11T15:43:53.127Z,10.07
2022-11-11T15:46:43.348Z,10.01
2022-11-11T15:49:38.739Z,10.00
2022-11-11T15:52:27.245Z,9.94
2022-11-11T15:55:28.241Z,9.86
2022-11-11T15:58:28.428Z,9.85
2022-11-11T16:01:16.358Z,9.79
2022-11-11T16:04:02.496Z,9.81
2022-11-11T16:06:49.361Z,9.90
2022-11-11T16:09:38.079Z,9.94
2022-11-11T16:12:35.998Z,9.96
2022-11-11T16:15:39.848Z,9.92
2022-11-11T16:18:34.698Z,9.87
2022-11-11T16:21:30.292Z,9.84
2022-11-11T16:24:34.117Z,9.80
2022-11-11T16:27:26.648Z,9.77
2022-11-11T16:30:39.268Z,9.74
2022-11-11T16:33:28.351Z,9.80
2022-11-11T16:36:14.320Z,9.73
2022-11-11T16:39:15.007Z,9.68
2022-11-11T16:42:05.511Z,9.71
2022-11-11T16:44:55.438Z,10.03
2022-11-11T16:47:44.179Z,10.15
2022-11-11T16:50:30.323Z,10.26
2022-11-11T16:53:33.821Z,10.24
2022-11-11T16:56:31.140Z,10.29
2022-11-11T16:59:37.039Z,10.37
2022-11-11T17:02:25.224Z,10.45
2022-11-11T17:05:11.668Z,10.43
2022-11-11T17:07:57.888Z,10.27
2022-11-11T17:10:43.777Z,10.11
2022-11-11T17:13:30.208Z,10.05
2022-11-11T17:16:16.518Z,10.08
2022-11-11T17:19:03.759Z,10.07
2022-11-11T17:21:49.699Z,10.14
2022-11-11T17:24:36.431Z,10.13
2022-11-11T17:27:22.798Z,10.15
2022-11-11T17:30:10.412Z,10.16
2022-11-11T17:32:56.677Z,10.38
2022-11-11T17:35:52.712Z,10.14
2022-11-11T17:38:38.915Z,9.99
2022-11-11T17:41:25.209Z,9.90
2022-11-11T17:44:11.077Z,9.91
2022-11-11T17:46:57.177Z,9.86
2022-11-11T17:49:56.233Z,9.64
2022-11-11T17:52:42.843Z,9.47
2022-11-11T17:55:29.228Z,9.34
2022-11-11T17:58:15.368Z,9.31
2022-11-11T18:01:09.539Z,9.31
2022-11-11T18:03:57.188Z,9.28
2022-11-11T18:06:43.665Z,9.33
2022-11-11T18:09:30.232Z,9.43
2022-11-11T18:12:16.437Z,9.59
2022-11-11T18:15:02.447Z,9.71
2022-11-11T18:17:48.293Z,9.84
2022-11-11T18:20:34.237Z,9.98
2022-11-11T18:23:20.567Z,10.09
2022-11-11T18:26:07.978Z,10.17
2022-11-11T18:28:54.047Z,10.25
2022-11-11T18:31:40.013Z,10.31
2022-11-11T18:34:26.698Z,10.33
2022-11-11T18:37:12.853Z,10.36
2022-11-11T18:39:58.901Z,10.43
2022-11-11T18:42:44.612Z,10.47
2022-11-11T18:45:30.755Z,10.51
2022-11-11T18:48:16.945Z,10.51
2022-11-11T18:51:03.656Z,10.38
2022-11-11T18:53:50.095Z,10.22
2022-11-11T18:56:37.911Z,10.10
2022-11-11T18:59:24.084Z,10.10
2022-11-11T19:02:10.215Z,10.04
2022-11-11T19:04:56.349Z,10.06
2022-11-11T19:07:42.254Z,10.10
2022-11-11T19:10:28.388Z,9.97
2022-11-11T19:13:14.706Z,10.02
2022-11-11T19:16:09.497Z,10.01
2022-11-11T19:18:56.605Z,9.76
2022-11-11T19:21:42.446Z,9.62
2022-11-11T19:24:33.538Z,9.63
2022-11-11T19:27:19.848Z,9.73
2022-11-11T19:30:06.296Z,9.66
2022-11-11T19:32:52.337Z,9.61
2022-11-11T19:35:38.462Z,9.80
2022-11-11T19:38:24.712Z,9.82
2022-11-11T19:41:13.926Z,9.80
2022-11-11T19:44:00.158Z,9.63
2022-11-11T19:46:46.475Z,9.61
2022-11-11T19:49:32.706Z,9.72
2022-11-11T19:52:18.772Z,9.80
2022-11-11T19:55:05.128Z,9.84
2022-11-11T19:57:51.123Z,9.75
2022-11-11T20:00:37.425Z,9.68
2022-11-11T20:03:24.385Z,9.59
2022-11-11T20:06:21.321Z,9.49
2022-11-11T20:09:08.809Z,9.52
2022-11-11T20:11:55.064Z,9.50
2022-11-11T20:14:40.882Z,9.45
2022-11-11T20:17:28.359Z,9.54
2022-11-11T20:20:14.469Z,9.51
2022-11-11T20:23:07.329Z,9.55
2022-11-11T20:25:54.866Z,9.65
2022-11-11T20:28:42.438Z,9.67
2022-11-11T20:31:28.887Z,9.67
2022-11-11T20:34:14.825Z,9.68
2022-11-11T20:37:01.208Z,9.71
2022-11-11T20:39:47.197Z,9.73
2022-11-11T20:42:33.237Z,9.78
2022-11-11T20:45:19.496Z,9.77
2022-11-11T20:48:09.570Z,9.68
2022-11-11T20:51:07.160Z,9.45
2022-11-11T20:53:55.077Z,9.29
2022-11-11T20:56:41.035Z,9.17
2022-11-11T20:59:26.852Z,9.10
2022-11-11T21:02:12.852Z,9.28
2022-11-11T21:04:59.107Z,9.36
2022-11-11T21:07:48.852Z,9.48
2022-11-11T21:10:35.168Z,9.56
2022-11-11T21:13:21.123Z,9.62
2022-11-11T21:16:15.744Z,9.53
2022-11-11T21:19:04.332Z,9.39
2022-11-11T21:21:50.306Z,9.37
2022-11-11T21:24:36.993Z,9.34
2022-11-11T21:27:22.953Z,9.32
2022-11-11T21:30:09.271Z,9.28
2022-11-11T21:32:55.703Z,9.24
2022-11-11T21:35:41.756Z,9.16
2022-11-11T21:38:28.004Z,9.10
2022-11-11T21:41:19.748Z,9.08
2022-11-11T21:44:07.477Z,9.09
2022-11-11T21:46:53.408Z,9.10
2022-11-11T21:49:39.363Z,8.97
2022-11-11T21:52:25.507Z,8.96
2022-11-11T21:55:11.468Z,8.94
2022-11-11T21:57:57.644Z,9.02
2022-11-11T22:00:43.698Z,9.07
2022-11-11T22:03:29.854Z,9.06
2022-11-11T22:06:16.125Z,9.06
2022-11-11T22:09:03.295Z,9.11
2022-11-11T22:11:49.227Z,9.06
2022-11-11T22:14:35.353Z,8.96
2022-11-11T22:17:21.727Z,9.02
2022-11-11T22:20:08.258Z,9.05
2022-11-11T22:22:54.177Z,9.07
2022-11-11T22:25:40.029Z,9.06
2022-11-11T22:28:26.291Z,8.93
2022-11-11T22:31:17.435Z,8.86
2022-11-11T22:34:16.548Z,8.87
2022-11-11T22:37:03.157Z,8.93
2022-11-11T22:39:49.349Z,8.95
2022-11-11T22:42:34.976Z,8.84
2022-11-11T22:45:21.058Z,8.74
2022-11-11T22:48:07.419Z,8.62
2022-11-11T22:50:53.683Z,8.49
2022-11-11T22:53:41.995Z,8.41
2022-11-11T22:56:29.005Z,8.31
2022-11-11T22:59:14.864Z,8.50
2022-11-11T23:02:00.846Z,8.51
2022-11-11T23:04:46.808Z,8.56
2022-11-11T23:07:33.089Z,8.62
2022-11-11T23:10:19.063Z,8.67
2022-11-11T23:13:05.136Z,8.67
2022-11-11T23:15:53.597Z,8.68
2022-11-11T23:18:40.612Z,8.71
2022-11-11T23:21:28.401Z,8.76
2022-11-11T23:24:14.367Z,8.83
2022-11-11T23:27:00.320Z,8.88
2022-11-11T23:29:51.145Z,8.93
2022-11-11T23:32:38.286Z,8.91
2022-11-11T23:35:24.266Z,8.83
2022-11-11T23:38:10.506Z,8.77
2022-11-11T23:40:56.966Z,8.68
2022-11-11T23:43:43.186Z,8.67
2022-11-11T23:46:29.297Z,8.67
2022-11-11T23:49:15.022Z,8.69
2022-11-11T23:52:01.089Z,8.65
2022-11-11T23:54:47.023Z,8.62
2022-11-11T23:57:32.963Z,8.49
